This is the latest recevied weather packets stored in our database for station/object IZ3MEZ-13. If no packets are shown the sender has not sent any weather packets the latest 1 day(s).
| Time | Temp. | Humidity | Pressure | Rain* | Wind** | Luminosity | Snow |
|---|---|---|---|---|---|---|---|
| 1778099720 | 14.44° C | 91% | 1012.2 hPa | 0 mm | - | 0 W/m² | - |
| 1778096118 | 16.11° C | 90% | 1011.6 hPa | 0 mm | - | 0 W/m² | - |
| 1778092518 | 16.67° C | 88% | 1010.9 hPa | 0 mm | - | 0 W/m² | - |
| 1778090720 | 17.22° C | 88% | 1010.8 hPa | 0 mm | - | 2 W/m² | - |
| 1778088922 | 17.22° C | 87% | 1010.6 hPa | 0 mm | - | 21 W/m² | - |
| 1778087118 | 17.78° C | 86% | 1010.6 hPa | 0 mm | - | 33 W/m² | - |
| 1778083518 | 20° C | 81% | 1010.7 hPa | 0 mm | - | 101 W/m² | - |
| 1778081728 | 19.44° C | 84% | 1010.7 hPa | 0 mm | - | 276 W/m² | - |
| 1778081424 | 18.89° C | 84% | 1010.6 hPa | 0 mm | - | 157 W/m² | - |
| 1778076919 | 18.33° C | 89% | 1010.8 hPa | 0.25 mm | - | 144 W/m² | - |
| 1778073018 | 17.22° C | 86% | 1011.5 hPa | 1.02 mm | - | 42 W/m² | - |
| 1778072420 | 17.78° C | 85% | 1011.6 hPa | 0.25 mm | - | 30 W/m² | - |
| 1778069418 | 19.44° C | 80% | 1011.6 hPa | 0 mm | - | 57 W/m² | - |
| 1778068819 | 20° C | 78% | 1011.8 hPa | 0 mm | - | 137 W/m² | - |
| 1778067618 | 21.11° C | 79% | 1012 hPa | 0 mm | - | 236 W/m² | - |
| 1778067023 | 21.11° C | 80% | 1012.1 hPa | 0 mm | - | 318 W/m² | - |
| 1778066728 | 21.11° C | 81% | 1012.1 hPa | 0 mm | - | 253 W/m² | - |
| 1778066119 | 20° C | 86% | 1012.1 hPa | 0 mm | - | 536 W/m² | - |
| 1778065218 | 17.78° C | 86% | 1012.4 hPa | 0 mm | - | 91 W/m² | - |
| 1778064017 | 17.78° C | 87% | 1012.3 hPa | 0 mm | - | 188 W/m² | - |
| 1778062221 | 17.22° C | 87% | 1012.6 hPa | 0.51 mm | - | 78 W/m² | - |
| 1778061020 | 17.22° C | 86% | 1012.7 hPa | 0.25 mm | - | 109 W/m² | - |
| 1778060421 | 17.22° C | 85% | 1012.6 hPa | 0.25 mm | - | 79 W/m² | - |
| 1778060128 | 17.22° C | 85% | 1012.7 hPa | 0.25 mm | - | 38 W/m² | - |
| 1778058625 | 18.33° C | 83% | 1012.7 hPa | 0 mm | - | 60 W/m² | - |
* Rain latest hour (hover to see other rain measurements)
** Current wind speed in m/s (hover to see current wind gust speed)